createdAt,value
2023-01-06T00:00:02.368Z,1012.9
2023-01-06T00:15:02.784Z,1012.8
2023-01-06T00:30:02.267Z,1012.5
2023-01-06T00:45:02.666Z,1012.5
2023-01-06T01:00:03.249Z,1012.5
2023-01-06T01:15:02.534Z,1012.5
2023-01-06T01:30:02.975Z,1012.4
2023-01-06T01:45:02.406Z,1012.3
2023-01-06T02:00:02.840Z,1012.3
2023-01-06T02:15:02.272Z,1012.2
2023-01-06T02:30:02.711Z,1012.2
2023-01-06T02:45:03.303Z,1012.0
2023-01-06T03:00:02.580Z,1011.8
2023-01-06T03:15:03.010Z,1011.7
2023-01-06T03:30:02.452Z,1011.6
2023-01-06T03:45:02.905Z,1011.4
2023-01-06T04:00:02.330Z,1011.2
2023-01-06T04:15:02.770Z,1011.1
2023-01-06T04:30:02.309Z,1011.0
2023-01-06T04:45:02.647Z,1010.8
2023-01-06T05:00:03.317Z,1010.7
2023-01-06T05:15:02.521Z,1010.5
2023-01-06T05:30:02.971Z,1010.4
2023-01-06T05:45:02.416Z,1010.0
2023-01-06T06:00:02.836Z,1010.4
2023-01-06T06:15:03.339Z,1010.2
2023-01-06T06:30:02.723Z,1010.2
2023-01-06T06:45:03.351Z,1010.0
2023-01-06T07:00:02.602Z,1009.8
2023-01-06T07:15:03.058Z,1009.8
2023-01-06T07:30:02.453Z,1009.6
2023-01-06T07:45:02.918Z,1009.6
2023-01-06T08:00:02.355Z,1009.7
2023-01-06T08:15:02.790Z,1009.8
2023-01-06T08:30:02.350Z,1009.9
2023-01-06T08:45:02.645Z,1009.9
2023-01-06T09:00:03.094Z,1010.3
2023-01-06T09:15:02.512Z,1010.1
2023-01-06T09:30:02.964Z,1010.4
2023-01-06T09:45:02.417Z,1010.5
2023-01-06T10:00:02.824Z,1010.7
2023-01-06T10:15:03.401Z,1011.0
2023-01-06T10:30:02.685Z,1010.9
2023-01-06T10:45:03.145Z,1011.0
2023-01-06T11:00:02.567Z,1011.0
2023-01-06T11:15:03.026Z,1011.3
2023-01-06T11:30:02.465Z,1011.3
2023-01-06T11:45:02.876Z,1011.4
2023-01-06T12:00:02.460Z,1011.4
2023-01-06T12:15:03.523Z,1011.4
2023-01-06T12:30:03.459Z,1011.4
2023-01-06T12:45:02.607Z,1011.5
2023-01-06T13:00:03.070Z,1011.5
2023-01-06T13:15:02.521Z,1011.6
2023-01-06T13:30:02.990Z,1011.7
2023-01-06T13:45:02.452Z,1011.7
2023-01-06T14:00:02.853Z,1011.9
2023-01-06T14:15:02.433Z,1011.6
2023-01-06T14:30:02.739Z,1011.8
2023-01-06T14:45:03.170Z,1012.0
2023-01-06T15:00:02.630Z,1012.0
2023-01-06T15:15:03.041Z,1012.0
2023-01-06T15:30:02.512Z,1012.1
2023-01-06T15:45:02.939Z,1012.2
2023-01-06T16:00:02.560Z,1012.1
2023-01-06T16:15:02.791Z,1012.3
2023-01-06T16:30:02.399Z,1012.1
2023-01-06T16:45:02.698Z,1012.5
2023-01-06T17:00:03.108Z,1012.3
2023-01-06T17:15:02.537Z,1012.4
2023-01-06T17:30:02.978Z,1012.5
2023-01-06T17:45:02.505Z,1012.5
2023-01-06T18:00:02.844Z,1012.5
2023-01-06T18:15:02.441Z,1012.7
2023-01-06T18:30:02.729Z,1012.6
2023-01-06T18:45:03.179Z,1012.5
2023-01-06T19:00:02.579Z,1012.6
2023-01-06T19:15:03.040Z,1012.5
2023-01-06T19:30:02.526Z,1012.4
2023-01-06T19:45:02.904Z,1012.4
2023-01-06T20:00:02.533Z,1012.2
2023-01-06T20:15:04.406Z,1012.4
2023-01-06T20:30:02.231Z,1012.3
2023-01-06T20:45:02.660Z,1012.3
2023-01-06T21:00:03.108Z,1012.2
2023-01-06T21:15:02.573Z,1012.2
2023-01-06T21:30:02.957Z,1012.2
2023-01-06T21:45:02.557Z,1012.1
2023-01-06T22:00:02.817Z,1012.0
2023-01-06T22:15:03.273Z,1012.0
2023-01-06T22:30:02.687Z,1012.0
2023-01-06T22:45:03.147Z,1012.0
2023-01-06T23:00:02.708Z,1011.9
2023-01-06T23:15:02.028Z,1012.0
2023-01-06T23:30:02.595Z,1012.0
2023-01-06T23:45:02.916Z,1011.7
